Time;durP1;ratioP1;P1;durP2;ratioP2;P2;SDS_P1;SDS_P2;PMS_P1;PMS_P2;Temp;Humidity;BMP_temperature;BMP_pressure;BME280_temperature;BME280_humidity;BME280_pressure;Samples;Min_cycle;Max_cycle;Signal;HPM_P1;HPM_P2
2022/04/06 00:02:17;;;;;;;13.00;4.90;;;;;;;6.03;69.71;97840.01;106125;1274;108227;-66
2022/04/06 00:04:46;;;;;;;12.70;5.50;;;;;;;6.04;69.62;97839.91;106140;1274;97864;-65
2022/04/06 00:07:17;;;;;;;14.10;5.80;;;;;;;6.07;69.76;97839.55;106236;1271;97950;-65
2022/04/06 00:09:45;;;;;;;14.30;5.10;;;;;;;6.09;69.86;97837.98;106201;1271;111912;-62
2022/04/06 00:12:13;;;;;;;12.30;4.50;;;;;;;6.11;69.64;97839.61;106177;1271;96168;-64
2022/04/06 00:14:41;;;;;;;12.10;4.70;;;;;;;6.13;69.70;97844.39;106210;1271;107329;-64
2022/04/06 00:17:13;;;;;;;12.60;5.00;;;;;;;6.14;69.70;97842.56;106212;1271;97875;-65
2022/04/06 00:19:43;;;;;;;11.70;4.50;;;;;;;6.16;69.62;97846.64;106217;1271;97900;-65
2022/04/06 00:22:12;;;;;;;10.80;4.50;;;;;;;6.18;69.55;97850.70;106201;1271;111787;-65
2022/04/06 00:24:41;;;;;;;9.80;4.20;;;;;;;6.20;69.52;97849.47;106113;1271;96360;-65
2022/04/06 00:27:13;;;;;;;9.90;3.90;;;;;;;6.24;69.72;97852.75;106086;1271;108303;-65
2022/04/06 00:29:41;;;;;;;9.20;4.30;;;;;;;6.27;69.68;97850.40;106130;1274;97975;-65
2022/04/06 00:32:11;;;;;;;9.10;4.10;;;;;;;6.29;69.85;97851.84;106141;1271;96521;-65
2022/04/06 00:37:29;;;;;;;9.40;4.50;;;;;;;6.34;69.73;97848.80;106076;1274;97899;-65
2022/04/06 00:39:58;;;;;;;12.60;4.70;;;;;;;6.36;69.64;97846.20;106107;1271;108376;-65
2022/04/06 00:42:27;;;;;;;9.50;4.20;;;;;;;6.38;69.71;97849.38;106067;1274;97931;-65
2022/04/06 00:44:55;;;;;;;9.10;4.20;;;;;;;6.39;69.43;97841.35;106056;1274;97854;-66
2022/04/06 00:47:26;;;;;;;8.10;3.80;;;;;;;6.41;69.56;97838.78;106051;1274;111845;-65
2022/04/06 00:49:53;;;;;;;8.80;4.60;;;;;;;6.44;69.61;97833.67;106156;1271;97922;-65
2022/04/06 00:52:21;;;;;;;11.70;4.10;;;;;;;6.45;69.52;97832.86;106119;1271;106957;-66
2022/04/06 00:54:52;;;;;;;9.10;4.10;;;;;;;6.47;69.54;97827.45;106138;1271;96457;-67
2022/04/06 00:57:20;;;;;;;8.50;4.30;;;;;;;6.48;69.48;97815.53;106192;1271;97816;-65
2022/04/06 01:00:01;;;;;;;11.00;3.90;;;;;;;6.49;69.48;97817.06;106176;1274;112111;-65
2022/04/06 01:02:29;;;;;;;6.80;3.40;;;;;;;6.50;69.52;97819.44;106165;1271;97975;-62
2022/04/06 01:05:02;;;;;;;10.20;4.50;;;;;;;6.52;69.63;97815.75;106213;1271;109208;-66
2022/04/06 01:07:30;;;;;;;8.80;4.00;;;;;;;6.54;69.80;97811.72;106185;1271;97971;-66
2022/04/06 01:10:03;;;;;;;7.00;3.30;;;;;;;6.57;69.46;97814.53;106155;1271;98558;-67
2022/04/06 01:12:38;;;;;;;6.60;3.20;;;;;;;6.59;69.74;97810.52;106119;1274;112476;-66
2022/04/06 01:15:09;;;;;;;7.30;3.70;;;;;;;6.60;69.53;97806.71;106157;1274;97917;-65
2022/04/06 01:17:37;;;;;;;7.80;3.70;;;;;;;6.62;69.47;97804.84;106087;1274;108541;-64
2022/04/06 01:20:10;;;;;;;7.20;3.50;;;;;;;6.64;69.30;97799.55;106133;1271;98595;-64
2022/04/06 01:22:40;;;;;;;7.70;3.60;;;;;;;6.65;69.64;97794.56;106138;1271;97920;-66
2022/04/06 01:25:11;;;;;;;8.20;3.50;;;;;;;6.65;69.44;97797.21;106196;1271;110901;-64
2022/04/06 01:27:42;;;;;;;8.20;3.40;;;;;;;6.65;69.46;97801.27;106148;1271;96223;-65
2022/04/06 01:30:10;;;;;;;6.70;3.70;;;;;;;6.64;69.22;97804.13;106068;1271;108349;-64
2022/04/06 01:32:41;;;;;;;7.10;3.30;;;;;;;6.63;69.23;97807.86;106102;1271;95295;-64
2022/04/06 01:35:12;;;;;;;11.10;3.90;;;;;;;6.64;69.42;97810.30;106165;1271;97871;-64
2022/04/06 01:37:43;;;;;;;7.70;3.70;;;;;;;6.63;69.30;97817.27;106088;1271;111765;-65
2022/04/06 01:40:13;;;;;;;7.70;3.30;;;;;;;6.61;69.20;97815.60;106108;1271;95199;-64
2022/04/06 01:42:43;;;;;;;8.40;3.80;;;;;;;6.60;69.23;97810.45;106048;1274;108878;-65
2022/04/06 01:45:11;;;;;;;5.80;3.20;;;;;;;6.57;69.02;97811.89;106057;1274;96409;-64
2022/04/06 01:47:39;;;;;;;7.80;3.70;;;;;;;6.54;69.17;97813.16;106111;1274;97874;-65
2022/04/06 01:52:56;;;;;;;7.60;3.50;;;;;;;6.50;69.15;97814.48;106194;1274;97888;-67
2022/04/06 01:55:26;;;;;;;7.30;3.70;;;;;;;6.49;69.06;97815.86;106131;1274;108759;-68
2022/04/06 01:57:56;;;;;;;5.10;3.10;;;;;;;6.47;69.21;97816.13;106103;1274;97863;-66
2022/04/06 02:00:27;;;;;;;5.90;3.20;;;;;;;6.46;69.03;97813.03;106175;1274;97979;-66
2022/04/06 02:02:56;;;;;;;7.20;4.10;;;;;;;6.45;69.02;97810.89;106149;1274;111763;-65
2022/04/06 02:05:24;;;;;;;7.30;3.50;;;;;;;6.44;68.98;97810.95;106134;1274;97941;-65
2022/04/06 02:07:53;;;;;;;6.30;3.40;;;;;;;6.43;68.88;97814.34;106056;1273;108301;-65
2022/04/06 02:10:21;;;;;;;6.70;3.60;;;;;;;6.42;68.90;97808.08;106106;1274;97985;-64
2022/04/06 02:12:57;;;;;;;6.60;3.20;;;;;;;6.39;68.81;97799.63;106145;1274;95241;-65
2022/04/06 02:15:27;;;;;;;;;;;;;;;6.38;68.80;97793.75;106226;1274;112054;-65
2022/04/06 02:17:58;;;;;;;8.50;3.50;;;;;;;6.35;68.68;97792.91;106057;1274;97960;-65
2022/04/06 02:20:27;;;;;;;9.00;3.70;;;;;;;6.34;68.77;97798.84;106079;1273;108362;-65
2022/04/06 02:22:56;;;;;;;4.80;3.20;;;;;;;6.32;68.66;97802.88;106096;1274;97840;-65
2022/04/06 02:25:26;;;;;;;6.20;3.10;;;;;;;6.30;68.73;97800.14;106225;1274;98166;-64
2022/04/06 02:27:55;;;;;;;4.50;3.00;;;;;;;6.29;68.71;97802.02;106229;1274;112016;-66
2022/04/06 02:30:23;;;;;;;5.90;3.20;;;;;;;6.28;68.70;97800.86;106207;1274;98440;-66
2022/04/06 02:32:51;;;;;;;5.30;3.20;;;;;;;6.27;68.69;97805.73;106163;1274;108378;-66
2022/04/06 02:35:19;;;;;;;5.10;3.10;;;;;;;6.25;68.68;97803.85;106102;1274;97970;-65
2022/04/06 02:37:47;;;;;;;5.40;3.10;;;;;;;6.25;68.76;97804.77;106133;1274;96333;-66
2022/04/06 02:40:15;;;;;;;5.40;3.10;;;;;;;6.24;68.60;97807.98;106061;1274;111960;-65
2022/04/06 02:42:45;;;;;;;6.60;3.50;;;;;;;6.24;68.70;97808.38;106157;1271;95183;-65
2022/04/06 02:45:14;;;;;;;6.80;3.40;;;;;;;6.24;68.49;97811.55;106140;1271;108251;-67
2022/04/06 02:47:47;;;;;;;5.70;3.40;;;;;;;6.25;68.43;97811.13;106114;1271;98550;-66
2022/04/06 02:50:16;;;;;;;6.50;3.50;;;;;;;6.26;68.37;97803.64;106150;1271;96436;-67
2022/04/06 02:52:46;;;;;;;5.90;3.40;;;;;;;6.27;68.62;97801.96;106169;1271;112026;-69
2022/04/06 02:55:14;;;;;;;8.40;3.50;;;;;;;6.28;68.57;97801.03;106219;1271;98410;-65
2022/04/06 02:57:43;;;;;;;6.40;3.20;;;;;;;6.30;68.45;97798.77;106144;1271;108238;-66
2022/04/06 03:00:16;;;;;;;6.00;3.30;;;;;;;6.32;68.58;97798.25;106201;1271;97924;-66
2022/04/06 03:02:46;;;;;;;7.30;3.60;;;;;;;6.33;68.45;97802.04;106130;1274;97867;-65
2022/04/06 03:05:15;;;;;;;8.20;3.60;;;;;;;6.34;68.46;97804.42;106086;1274;111772;-65
2022/04/06 03:07:46;;;;;;;6.50;3.20;;;;;;;6.36;68.46;97805.19;106185;1274;97905;-65
2022/04/06 03:10:17;;;;;;;6.70;3.60;;;;;;;6.35;68.52;97805.58;106078;1274;108679;-68
2022/04/06 03:12:45;;;;;;;6.90;3.50;;;;;;;6.37;68.30;97800.49;106080;1274;97995;-66
2022/04/06 03:15:17;;;;;;;6.30;3.30;;;;;;;6.38;68.48;97792.84;106106;1272;96464;-65
2022/04/06 03:17:46;;;;;;;7.80;3.60;;;;;;;6.41;68.57;97794.80;106129;1271;112103;-66
2022/04/06 03:20:15;;;;;;;6.70;3.40;;;;;;;6.43;68.43;97795.57;106180;1271;98443;-66
2022/04/06 03:22:42;;;;;;;5.40;3.10;;;;;;;6.43;68.31;97799.71;106144;1271;108385;-68
2022/04/06 03:25:12;;;;;;;8.10;3.50;;;;;;;6.45;68.15;97791.68;106098;1273;95204;-66
2022/04/06 03:27:40;;;;;;;6.70;3.50;;;;;;;6.46;68.26;97801.45;106173;1274;97992;-66
2022/04/06 03:30:14;;;;;;;5.30;3.00;;;;;;;6.47;68.34;97804.37;106174;1271;111811;-62
2022/04/06 03:32:46;;;;;;;6.50;3.60;;;;;;;6.48;68.06;97814.50;106136;1274;98747;-67
2022/04/06 03:35:14;;;;;;;7.30;3.60;;;;;;;6.50;68.09;97815.98;106108;1274;106658;-66
2022/04/06 03:37:42;;;;;;;7.30;3.60;;;;;;;6.51;68.17;97819.91;105794;1274;332502;-67
2022/04/06 03:40:13;;;;;;;7.00;3.90;;;;;;;6.52;68.47;97818.04;106122;1274;95283;-67
2022/04/06 03:42:41;;;;;;;5.40;3.40;;;;;;;6.53;68.35;97826.06;106081;1274;112680;-65
2022/04/06 03:45:12;;;;;;;7.80;4.00;;;;;;;6.54;68.22;97823.71;106131;1271;97898;-66
2022/04/06 03:47:42;;;;;;;8.50;4.10;;;;;;;6.55;68.26;97830.52;106107;1271;108316;-66
2022/04/06 03:50:12;;;;;;;9.20;4.40;;;;;;;6.55;68.22;97828.23;106044;1271;96317;-66
2022/04/06 03:52:43;;;;;;;6.50;3.70;;;;;;;6.55;68.05;97832.45;106082;1274;96407;-67
2022/04/06 03:55:12;;;;;;;9.50;3.80;;;;;;;6.56;68.06;97838.52;106149;1274;112030;-67
2022/04/06 03:57:41;;;;;;;9.30;4.10;;;;;;;6.57;68.15;97834.80;106146;1274;97066;-66
2022/04/06 04:00:12;;;;;;;7.80;3.80;;;;;;;6.57;67.92;97841.98;106128;1271;108286;-66
2022/04/06 04:02:41;;;;;;;8.10;3.70;;;;;;;6.58;67.92;97843.17;106055;1274;97923;-68
2022/04/06 04:05:13;;;;;;;7.80;4.00;;;;;;;6.59;68.02;97837.48;106149;1274;97944;-66
2022/04/06 04:07:46;;;;;;;7.60;3.40;;;;;;;6.61;68.16;97838.02;106172;1273;111777;-66
2022/04/06 04:10:19;;;;;;;5.90;3.10;;;;;;;6.63;68.08;97835.56;106150;1271;95153;-68
2022/04/06 04:12:48;;;;;;;9.30;4.30;;;;;;;6.64;68.07;97836.34;106171;1271;107216;-68
2022/04/06 04:15:19;;;;;;;8.90;4.00;;;;;;;6.67;68.02;97836.70;106123;1271;97853;-68
2022/04/06 04:17:47;;;;;;;6.70;3.50;;;;;;;6.69;68.13;97831.59;106166;1271;97021;-67
2022/04/06 04:20:15;;;;;;;9.70;4.20;;;;;;;6.70;67.86;97839.29;106079;1274;111895;-67
2022/04/06 04:22:43;;;;;;;9.60;4.10;;;;;;;6.70;67.91;97839.07;106156;1272;97877;-66
2022/04/06 04:25:12;;;;;;;9.10;4.20;;;;;;;6.72;68.01;97837.92;106171;1274;108463;-69
2022/04/06 04:27:43;;;;;;;11.80;4.70;;;;;;;6.72;67.84;97841.08;106090;1271;97940;-67
2022/04/06 04:30:13;;;;;;;11.30;4.40;;;;;;;6.73;68.05;97848.20;106158;1271;95210;-70
2022/04/06 04:32:43;;;;;;;9.20;3.90;;;;;;;6.73;67.77;97849.05;106218;1272;111815;-67
2022/04/06 04:35:13;;;;;;;9.60;4.50;;;;;;;6.74;67.68;97855.33;106180;1274;97886;-67
2022/04/06 04:37:44;;;;;;;8.70;4.50;;;;;;;6.74;67.82;97847.90;106191;1274;108197;-67
2022/04/06 04:40:16;;;;;;;8.20;4.10;;;;;;;6.76;67.87;97851.66;106083;1274;95269;-68
2022/04/06 04:42:44;;;;;;;10.00;4.40;;;;;;;6.77;67.69;97849.78;106130;1274;97926;-66
2022/04/06 04:45:12;;;;;;;9.90;4.50;;;;;;;6.78;67.75;97852.55;106133;1272;111998;-67
2022/04/06 04:47:40;;;;;;;8.50;4.20;;;;;;;6.81;67.53;97854.84;106105;1274;99047;-68
2022/04/06 04:50:10;;;;;;;11.00;4.30;;;;;;;6.83;67.89;97855.35;106083;1274;108835;-68
2022/04/06 04:52:40;;;;;;;8.60;4.20;;;;;;;6.87;67.69;97866.02;106053;1274;97979;-67
2022/04/06 04:55:11;;;;;;;9.50;4.30;;;;;;;6.90;67.71;97869.13;106093;1274;96299;-68
2022/04/06 04:57:39;;;;;;;10.30;4.10;;;;;;;6.92;67.76;97870.21;106068;1274;112013;-68
2022/04/06 05:00:13;;;;;;;7.90;4.20;;;;;;;6.94;67.47;97873.91;106137;1274;98419;-68
2022/04/06 05:02:41;;;;;;;7.20;3.70;;;;;;;6.95;67.60;97871.14;106134;1274;107636;-70
2022/04/06 05:05:14;;;;;;;10.40;4.10;;;;;;;6.98;67.57;97877.61;106167;1274;96217;-69
2022/04/06 05:07:42;;;;;;;9.50;4.00;;;;;;;7.02;67.51;97884.77;106182;1274;97880;-64
2022/04/06 05:10:13;;;;;;;10.00;4.30;;;;;;;7.05;67.67;97886.67;106246;1274;111873;-69
2022/04/06 05:12:42;;;;;;;9.90;4.60;;;;;;;7.07;67.40;97885.23;106206;1274;96335;-69
2022/04/06 05:15:12;;;;;;;10.80;4.40;;;;;;;7.11;67.63;97889.35;106217;1274;108401;-68
2022/04/06 05:17:42;;;;;;;12.40;4.70;;;;;;;7.16;67.39;97887.88;106165;1274;97995;-68
2022/04/06 05:20:13;;;;;;;9.80;4.40;;;;;;;7.22;67.35;97895.91;106154;1274;97843;-67
2022/04/06 05:22:41;;;;;;;11.30;4.60;;;;;;;7.26;67.48;97898.97;106207;1274;112038;-68
2022/04/06 05:25:12;;;;;;;9.20;3.90;;;;;;;7.29;67.41;97906.84;106111;1273;98372;-69
2022/04/06 05:27:50;;;;;;;10.20;4.30;;;;;;;7.32;67.58;97905.76;106056;1274;109000;-68
2022/04/06 05:30:21;;;;;;;9.40;4.30;;;;;;;7.37;67.58;97905.75;106065;1274;98090;-71
2022/04/06 05:32:53;;;;;;;8.30;4.20;;;;;;;7.40;67.39;97906.69;106160;1274;95312;-67
2022/04/06 05:35:26;;;;;;;9.90;4.60;;;;;;;7.45;67.59;97906.67;106089;1274;110143;-68
2022/04/06 05:37:58;;;;;;;11.20;4.60;;;;;;;7.50;67.51;97905.92;106101;1273;95163;-70
2022/04/06 05:40:26;;;;;;;9.70;4.50;;;;;;;7.57;67.49;97911.52;106106;1274;107637;-67
2022/04/06 05:42:57;;;;;;;10.00;4.20;;;;;;;7.65;67.56;97910.96;106177;1271;97888;-69
2022/04/06 05:45:25;;;;;;;12.80;5.10;;;;;;;7.72;67.55;97913.39;106107;1271;97140;-71
2022/04/06 05:47:56;;;;;;;8.30;4.00;;;;;;;7.77;67.35;97916.70;106082;1274;111923;-67
2022/04/06 05:50:26;;;;;;;13.00;4.90;;;;;;;7.81;67.36;97922.54;106093;1274;97855;-66
2022/04/06 05:52:55;;;;;;;12.50;5.20;;;;;;;7.84;67.41;97923.05;106138;1274;107652;-67
2022/04/06 05:55:24;;;;;;;11.50;4.80;;;;;;;7.86;67.09;97933.06;106122;1274;97928;-67
2022/04/06 05:57:52;;;;;;;13.20;5.40;;;;;;;7.88;67.24;97940.05;106199;1274;97876;-67
2022/04/06 06:00:22;;;;;;;10.30;4.90;;;;;;;7.89;67.29;97941.48;106179;1272;111975;-68
2022/04/06 06:02:51;;;;;;;10.50;4.70;;;;;;;7.90;67.25;97942.83;106164;1272;97896;-67
2022/04/06 06:05:20;;;;;;;12.50;4.90;;;;;;;7.91;67.13;97942.61;106141;1274;108086;-66
2022/04/06 06:07:50;;;;;;;11.90;5.20;;;;;;;7.93;66.99;97943.68;106136;1272;97988;-68
2022/04/06 06:10:20;;;;;;;10.20;5.10;;;;;;;7.94;67.06;97946.63;106122;1274;97840;-67
2022/04/06 06:12:49;;;;;;;10.60;4.60;;;;;;;7.93;67.06;97945.08;106049;1274;111383;-68
2022/04/06 06:15:23;;;;;;;12.00;4.90;;;;;;;7.95;67.13;97949.36;106120;1274;97976;-67
2022/04/06 06:17:53;;;;;;;12.10;5.50;;;;;;;7.96;67.09;97954.05;106130;1272;107625;-68
2022/04/06 06:20:22;;;;;;;14.50;5.30;;;;;;;7.96;67.02;97956.65;106147;1271;97904;-67
2022/04/06 06:22:55;;;;;;;13.20;5.30;;;;;;;7.98;66.98;97953.88;106152;1271;96564;-67
2022/04/06 06:25:23;;;;;;;14.80;5.90;;;;;;;7.97;66.90;97959.42;106166;1271;110152;-67
2022/04/06 06:27:51;;;;;;;13.10;5.20;;;;;;;7.97;66.74;97958.03;106156;1271;97867;-66
2022/04/06 06:30:20;;;;;;;14.20;5.10;;;;;;;7.96;66.60;97959.35;106117;1271;108113;-66
2022/04/06 06:32:49;;;;;;;13.10;5.50;;;;;;;7.94;66.69;97957.74;106124;1271;97886;-67
2022/04/06 06:35:19;;;;;;;13.20;5.80;;;;;;;7.95;66.79;97959.04;106109;1271;95178;-67
2022/04/06 06:37:55;;;;;;;16.90;6.70;;;;;;;7.96;66.64;97961.02;106195;1274;111356;-68
2022/04/06 06:40:27;;;;;;;14.00;5.70;;;;;;;7.97;66.55;97961.17;106181;1273;97966;-68
2022/04/06 06:42:57;;;;;;;11.30;5.40;;;;;;;7.98;66.60;97965.82;106071;1274;107756;-70
2022/04/06 06:45:26;;;;;;;12.00;5.10;;;;;;;8.00;66.63;97961.98;106094;1274;97858;-69
2022/04/06 06:47:54;;;;;;;13.60;5.70;;;;;;;8.05;66.60;97961.58;106112;1274;95262;-66
2022/04/06 06:50:23;;;;;;;16.20;6.00;;;;;;;8.07;66.67;97970.31;106160;1273;111944;-68
2022/04/06 06:52:52;;;;;;;15.00;6.50;;;;;;;8.10;66.55;97973.93;106075;1273;97909;-68
2022/04/06 06:55:22;;;;;;;15.40;6.10;;;;;;;8.14;66.73;97977.50;106096;1274;107984;-69
2022/04/06 06:57:52;;;;;;;13.90;5.90;;;;;;;8.18;66.66;97977.34;106197;1271;97984;-68
2022/04/06 07:00:23;;;;;;;16.00;6.40;;;;;;;8.22;66.43;97981.98;106179;1271;97888;-68
2022/04/06 07:02:52;;;;;;;11.30;5.70;;;;;;;8.24;66.46;97980.45;106126;1271;112012;-68
2022/04/06 07:05:25;;;;;;;15.20;6.20;;;;;;;8.29;66.62;97979.14;106128;1271;97857;-70
2022/04/06 07:08:02;;;;;;;13.00;6.00;;;;;;;8.34;66.63;97979.91;106172;1271;108106;-69
2022/04/06 07:10:31;;;;;;;14.40;6.30;;;;;;;8.42;66.66;97980.52;106214;1271;97863;-67
2022/04/06 07:13:01;;;;;;;16.10;7.00;;;;;;;8.48;66.51;97982.73;106163;1271;95295;-70
2022/04/06 07:15:31;;;;;;;16.00;6.80;;;;;;;8.53;66.44;97985.88;106091;1271;111057;-68
2022/04/06 07:18:03;;;;;;;14.40;7.00;;;;;;;8.55;66.52;97992.98;106127;1271;96994;-68
2022/04/06 07:20:37;;;;;;;12.70;6.00;;;;;;;8.57;66.55;97988.58;106226;1271;107766;-67
2022/04/06 07:23:08;;;;;;;13.50;6.30;;;;;;;8.59;66.53;97985.39;106198;1271;96279;-69
2022/04/06 07:25:40;;;;;;;15.90;7.30;;;;;;;8.61;66.51;97989.64;106232;1271;97870;-70
2022/04/06 07:28:08;;;;;;;16.10;6.80;;;;;;;8.63;66.47;97986.66;106169;1271;112014;-65
2022/04/06 07:30:37;;;;;;;15.50;7.20;;;;;;;8.70;66.42;97993.39;106142;1271;96388;-69
2022/04/06 07:33:09;;;;;;;15.40;6.90;;;;;;;8.77;66.40;97989.92;106064;1270;108023;-67
2022/04/06 07:35:40;;;;;;;15.20;6.80;;;;;;;8.84;66.30;97989.95;106133;1271;97899;-65
2022/04/06 07:38:08;;;;;;;13.70;6.40;;;;;;;8.89;66.45;97994.60;106129;1271;98064;-68
2022/04/06 07:40:38;;;;;;;18.60;7.50;;;;;;;9.00;66.41;97993.33;106097;1271;111940;-68
2022/04/06 07:43:06;;;;;;;12.40;5.80;;;;;;;9.21;66.33;97990.70;106124;1270;97880;-68
2022/04/06 07:45:36;;;;;;;17.80;7.20;;;;;;;9.29;66.26;97994.36;106065;1271;108251;-68
2022/04/06 07:48:05;;;;;;;16.30;7.00;;;;;;;9.32;66.39;97992.09;106098;1271;95257;-68
2022/04/06 07:50:33;;;;;;;14.10;6.30;;;;;;;9.39;66.39;97993.11;106110;1271;95147;-69
2022/04/06 07:53:01;;;;;;;13.60;6.30;;;;;;;9.53;66.44;97993.54;106200;1271;111979;-68
2022/04/06 07:55:30;;;;;;;15.40;6.40;;;;;;;9.68;66.35;97989.61;106161;1271;97784;-64
2022/04/06 07:58:04;;;;;;;14.30;6.90;;;;;;;9.83;66.01;97991.80;106171;1273;108191;-68
2022/04/06 08:00:33;;;;;;;13.60;5.90;;;;;;;9.99;66.27;97997.02;106122;1271;98480;-65
2022/04/06 08:03:03;;;;;;;13.80;6.80;;;;;;;10.19;66.33;97996.38;106092;1271;98072;-69
2022/04/06 08:05:35;;;;;;;15.80;7.50;;;;;;;10.40;66.17;97995.27;106065;1271;111904;-69
2022/04/06 08:08:07;;;;;;;13.90;6.30;;;;;;;10.56;66.23;97999.90;106122;1271;96210;-68
2022/04/06 08:10:36;;;;;;;16.00;6.90;;;;;;;10.76;66.04;97997.61;106114;1274;108727;-69
2022/04/06 08:13:06;;;;;;;16.30;6.50;;;;;;;10.89;66.02;97993.73;106063;1271;97912;-67
2022/04/06 08:15:35;;;;;;;14.40;6.40;;;;;;;11.02;65.86;97997.14;107473;1271;97963;-69
2022/04/06 08:18:08;;;;;;;13.20;6.40;;;;;;;11.20;65.95;97990.91;106097;1272;112149;-69
2022/04/06 08:20:39;;;;;;;14.40;6.40;;;;;;;11.30;65.85;97993.30;106090;1274;97964;-69
2022/04/06 08:23:07;;;;;;;12.40;5.60;;;;;;;11.42;65.71;97992.05;106046;1271;107692;-68
2022/04/06 08:25:36;;;;;;;13.00;5.60;;;;;;;11.50;65.34;97992.35;106671;1271;97874;-68
2022/04/06 08:28:08;;;;;;;11.90;5.60;;;;;;;11.59;65.26;97991.39;106043;1271;96329;-69
2022/04/06 08:30:41;;;;;;;11.60;5.30;;;;;;;11.68;64.78;97997.60;106028;1274;111948;-68
2022/04/06 08:33:11;;;;;;;14.90;5.60;;;;;;;11.73;64.34;97994.48;106103;1271;98436;-67
2022/04/06 08:35:43;;;;;;;12.10;6.00;;;;;;;11.78;64.48;97986.90;106013;1271;108441;-68
2022/04/06 08:38:16;;;;;;;13.10;5.80;;;;;;;11.85;64.62;97990.38;106047;1271;95282;-68
2022/04/06 08:40:45;;;;;;;10.50;5.50;;;;;;;11.94;64.31;97989.66;106052;1274;95602;-68
2022/04/06 08:43:17;;;;;;;14.60;5.80;;;;;;;12.04;63.67;97989.32;106032;1274;110784;-69
2022/04/06 08:45:45;;;;;;;12.30;5.50;;;;;;;12.16;63.87;97993.63;106088;1274;95325;-68
2022/04/06 08:48:20;;;;;;;13.40;5.60;;;;;;;12.24;63.95;97996.59;106045;1274;107242;-68
2022/04/06 08:50:51;;;;;;;10.70;5.20;;;;;;;12.28;63.83;97994.46;106055;1274;95970;-67
2022/04/06 08:53:22;;;;;;;12.30;5.60;;;;;;;12.28;63.70;98000.26;106087;1274;97885;-68
2022/04/06 08:55:51;;;;;;;14.50;5.80;;;;;;;12.27;63.59;97998.78;106068;1274;111457;-68
2022/04/06 08:58:19;;;;;;;11.30;6.00;;;;;;;12.22;63.63;98003.42;106060;1274;96384;-67
2022/04/06 09:00:49;;;;;;;14.30;6.40;;;;;;;12.13;63.34;98005.15;106067;1274;107631;-69
2022/04/06 09:03:21;;;;;;;14.10;5.60;;;;;;;12.03;63.31;98001.27;106119;1274;97969;-68
2022/04/06 09:06:06;;;;;;;12.60;5.50;;;;;;;11.94;63.06;98001.55;106199;1274;98475;-70
2022/04/06 09:08:45;;;;;;;15.50;6.10;;;;;;;11.84;62.85;98000.52;106173;1273;111878;-68
2022/04/06 09:11:17;;;;;;;11.70;5.70;;;;;;;11.83;63.12;97999.05;106166;1274;97870;-67
2022/04/06 09:14:00;;;;;;;12.60;6.10;;;;;;;11.91;62.82;97992.98;106105;1274;107714;-68
2022/04/06 09:16:32;;;;;;;11.60;5.20;;;;;;;12.03;62.52;97991.81;106069;1274;97393;-68
2022/04/06 09:19:17;;;;;;;11.60;5.20;;;;;;;12.09;62.45;97995.98;106049;1274;97960;-67
2022/04/06 09:21:48;;;;;;;13.60;5.70;;;;;;;12.08;62.43;97994.95;106154;1274;111434;-67
2022/04/06 09:24:20;;;;;;;10.20;4.70;;;;;;;12.15;62.26;97997.71;106123;1274;97957;-69
2022/04/06 09:27:02;;;;;;;11.70;5.60;;;;;;;12.36;61.90;98001.71;106089;1272;106575;-70
2022/04/06 09:29:35;;;;;;;12.00;5.90;;;;;;;12.55;61.96;97999.70;106195;1274;96556;-69
2022/04/06 09:32:12;;;;;;;15.60;6.20;;;;;;;12.68;61.92;97995.23;106147;1273;97899;-68
2022/04/06 09:35:03;;;;;;;14.40;6.40;;;;;;;12.68;60.77;97999.29;106051;1274;112286;-64
2022/04/06 09:37:34;;;;;;;12.30;6.00;;;;;;;12.54;61.17;97998.15;106089;1274;97884;-68
2022/04/06 09:40:11;;;;;;;11.70;5.60;;;;;;;12.53;61.24;97996.30;106026;1274;108365;-72
2022/04/06 09:42:42;;;;;;;12.00;5.50;;;;;;;12.51;61.31;97995.05;106093;1272;97015;-67
2022/04/06 09:48:04;;;;;;;11.80;5.40;;;;;;;12.48;61.31;97991.27;106215;1271;111533;-67
2022/04/06 09:50:32;;;;;;;11.20;5.10;;;;;;;12.48;61.19;97991.42;106212;1271;96311;-67
2022/04/06 09:53:04;;;;;;;13.20;5.60;;;;;;;12.49;61.03;97986.56;106222;1271;108386;-68
2022/04/06 09:55:36;;;;;;;10.90;5.60;;;;;;;12.46;60.80;97977.44;106141;1271;96520;-68
2022/04/06 09:58:08;;;;;;;12.40;5.20;;;;;;;12.44;60.57;97975.36;106240;1271;96263;-66
2022/04/06 10:00:38;;;;;;;11.30;5.50;;;;;;;12.42;60.69;97970.16;106209;1271;111574;-68
2022/04/06 10:03:10;;;;;;;15.30;6.30;;;;;;;12.49;60.33;97966.28;106134;1274;97418;-68
2022/04/06 10:05:42;;;;;;;14.10;6.30;;;;;;;12.62;60.14;97965.52;106140;1272;107771;-68
2022/04/06 10:08:14;;;;;;;10.30;5.60;;;;;;;12.82;60.11;97966.97;106158;1274;95379;-66
2022/04/06 10:10:45;;;;;;;14.00;5.80;;;;;;;13.04;59.98;97961.38;106161;1274;95171;-68
2022/04/06 10:13:15;;;;;;;9.70;4.90;;;;;;;13.36;60.27;97960.27;106197;1274;111459;-68
2022/04/06 10:16:10;;;;;;;9.20;4.50;;;;;;;13.71;60.13;97957.51;106115;1274;97931;-67
2022/04/06 10:18:44;;;;;;;10.40;4.70;;;;;;;14.07;60.08;97955.08;106097;1274;107658;-67
2022/04/06 10:21:36;;;;;;;8.20;4.40;;;;;;;14.36;60.05;97955.59;106114;1274;97985;-66
2022/04/06 10:24:41;;;;;;;8.70;4.20;;;;;;;14.70;60.17;97950.98;106188;1274;97865;-67
2022/04/06 10:27:29;;;;;;;11.20;4.90;;;;;;;15.01;59.41;97951.75;106122;1274;113343;-69
2022/04/06 10:30:23;;;;;;;9.70;4.70;;;;;;;15.13;59.51;97955.05;106141;1271;97883;-69
2022/04/06 10:32:57;;;;;;;10.80;4.60;;;;;;;15.13;59.10;97946.45;106119;1271;107694;-68
2022/04/06 10:35:34;;;;;;;7.70;4.40;;;;;;;15.20;58.75;97943.77;106149;1271;97922;-71
2022/04/06 10:38:02;;;;;;;8.20;4.20;;;;;;;15.34;58.58;97944.43;106168;1273;97864;-67
2022/04/06 10:40:44;;;;;;;9.80;4.50;;;;;;;15.51;58.29;97945.77;106125;1271;112169;-67
2022/04/06 10:43:50;;;;;;;6.60;3.70;;;;;;;15.64;56.84;97949.55;106116;1272;96272;-69
2022/04/06 10:46:40;;;;;;;8.10;4.20;;;;;;;15.73;57.31;97947.41;106078;1274;109128;-68
2022/04/06 10:49:15;;;;;;;8.60;4.20;;;;;;;15.85;56.86;97940.06;106134;1271;97986;-68
2022/04/06 10:51:43;;;;;;;8.30;4.00;;;;;;;16.03;57.19;97939.15;106193;1271;97952;-67
2022/04/06 10:54:14;;;;;;;6.50;3.60;;;;;;;16.17;56.81;97938.98;106176;1271;112234;-67
2022/04/06 10:56:57;;;;;;;7.90;3.80;;;;;;;16.31;56.30;97941.60;106172;1271;97979;-68
2022/04/06 10:59:29;;;;;;;10.10;4.30;;;;;;;16.41;55.85;97931.11;106149;1271;107709;-68
2022/04/06 11:02:16;;;;;;;14.50;4.20;;;;;;;16.46;56.16;97920.66;106171;1271;97863;-67
2022/04/06 11:04:50;;;;;;;6.90;3.90;;;;;;;16.53;55.93;97920.20;106165;1271;97860;-68
2022/04/06 11:10:22;;;;;;;9.10;4.10;;;;;;;16.55;54.73;97924.64;106088;1274;97881;-69
2022/04/06 11:13:13;;;;;;;7.80;3.40;;;;;;;16.55;54.93;97928.73;106120;1271;108591;-70
2022/04/06 11:15:42;;;;;;;7.90;3.60;;;;;;;16.53;54.72;97928.20;106096;1274;96313;-69
2022/04/06 11:18:50;;;;;;;9.50;3.90;;;;;;;16.47;54.96;97926.82;106207;1271;97878;-69
2022/04/06 11:21:18;;;;;;;9.50;3.60;;;;;;;16.29;53.90;97923.80;106145;1271;111346;-68
2022/04/06 11:23:46;;;;;;;7.10;3.90;;;;;;;16.15;53.76;97937.76;106158;1271;98036;-70
2022/04/06 11:26:17;;;;;;;6.40;3.60;;;;;;;16.05;54.33;97937.61;106129;1271;107573;-71
2022/04/06 11:28:56;;;;;;;7.90;3.70;;;;;;;15.97;54.48;97943.13;106153;1271;96186;-67
2022/04/06 11:31:24;;;;;;;7.10;3.60;;;;;;;15.88;53.84;97946.82;106214;1271;97945;-67
2022/04/06 11:33:52;;;;;;;8.10;3.90;;;;;;;15.71;53.48;97946.04;106195;1271;111958;-68
2022/04/06 11:36:22;;;;;;;7.10;3.60;;;;;;;15.50;53.36;97948.52;106168;1270;97953;-68
2022/04/06 11:38:53;;;;;;;7.80;3.80;;;;;;;15.34;53.32;97949.70;106129;1271;108634;-67
2022/04/06 11:41:21;;;;;;;8.80;4.20;;;;;;;15.18;53.20;97948.59;106120;1272;98113;-68
2022/04/06 11:43:53;;;;;;;8.70;4.40;;;;;;;15.07;53.40;97932.50;106165;1274;97878;-69
2022/04/06 11:46:24;;;;;;;13.40;5.10;;;;;;;15.09;53.52;97940.13;106174;1274;111967;-67
2022/04/06 11:48:54;;;;;;;15.50;5.20;;;;;;;15.09;53.51;97940.16;106231;1271;97881;-67
2022/04/06 11:51:28;;;;;;;11.90;5.00;;;;;;;15.06;53.15;97938.13;106136;1273;108356;-66
2022/04/06 11:53:57;;;;;;;11.90;5.20;;;;;;;15.00;53.35;97933.64;106100;1274;95229;-67
2022/04/06 11:56:26;;;;;;;11.30;4.50;;;;;;;15.03;53.33;97929.20;106131;1271;97923;-66